Time;durP1;ratioP1;P1;durP2;ratioP2;P2;SDS_P1;SDS_P2;PMS_P1;PMS_P2;Temp;Humidity;BMP_temperature;BMP_pressure;BME280_temperature;BME280_humidity;BME280_pressure;Samples;Min_cycle;Max_cycle;Signal;HPM_P1;HPM_P2
2023/03/03 00:02:21;;;;;;;9.93;6.87;;;4.70;55.10;;;;;;938308;149;27295;-74
2023/03/03 00:04:47;;;;;;;8.63;6.63;;;4.70;55.30;;;;;;940429;149;27299;-75
2023/03/03 00:07:21;;;;;;;8.77;6.80;;;4.60;55.30;;;;;;939179;149;27402;-76
2023/03/03 00:09:40;;;;;;;8.40;6.57;;;4.60;55.40;;;;;;941343;149;27360;-76
2023/03/03 00:12:22;;;;;;;8.23;6.53;;;4.50;55.50;;;;;;940683;149;27329;-74
2023/03/03 00:14:48;;;;;;;7.90;6.47;;;4.50;55.60;;;;;;938555;149;27737;-77
2023/03/03 00:17:15;;;;;;;9.57;6.67;;;4.40;55.60;;;;;;940383;149;27372;-79
2023/03/03 00:19:46;;;;;;;7.70;6.57;;;4.40;55.70;;;;;;939410;149;27353;-77
2023/03/03 00:22:08;;;;;;;8.37;6.93;;;4.40;55.90;;;;;;939122;149;27298;-77
2023/03/03 00:24:35;;;;;;;11.57;7.10;;;4.40;56.00;;;;;;939079;149;27792;-78
2023/03/03 00:27:01;;;;;;;7.63;6.00;;;4.30;56.10;;;;;;940677;149;27423;-79
2023/03/03 00:29:31;;;;;;;8.07;6.53;;;4.30;56.20;;;;;;938969;149;27417;-77
2023/03/03 00:32:24;;;;;;;8.80;6.67;;;4.20;56.20;;;;;;941113;149;27398;-75
2023/03/03 00:34:51;;;;;;;8.37;6.30;;;4.20;56.30;;;;;;941854;149;27312;-75
2023/03/03 00:37:23;;;;;;;7.23;6.50;;;4.20;56.30;;;;;;941300;149;27373;-75
2023/03/03 00:39:49;;;;;;;7.67;6.60;;;4.10;56.30;;;;;;939286;149;27437;-75
2023/03/03 00:42:16;;;;;;;8.10;6.60;;;4.10;56.40;;;;;;941948;149;27817;-75
2023/03/03 00:44:45;;;;;;;8.43;6.10;;;4.10;56.60;;;;;;940360;151;27284;-75
2023/03/03 00:47:31;;;;;;;8.10;6.60;;;4.00;56.70;;;;;;941110;149;27389;-75
2023/03/03 00:50:06;;;;;;;6.87;6.17;;;4.00;56.80;;;;;;939011;149;27453;-75
2023/03/03 00:52:38;;;;;;;7.87;6.57;;;3.90;56.70;;;;;;939034;149;27306;-75
2023/03/03 00:55:04;;;;;;;8.90;6.67;;;3.90;56.90;;;;;;938963;151;27390;-77
2023/03/03 00:57:31;;;;;;;10.53;7.07;;;3.90;57.10;;;;;;926363;149;27483;-75
2023/03/03 00:59:57;;;;;;;9.00;7.00;;;3.90;57.20;;;;;;939835;149;27399;-76
2023/03/03 01:02:24;;;;;;;8.83;6.97;;;3.80;57.30;;;;;;941821;149;27353;-76
2023/03/03 01:04:51;;;;;;;7.67;6.53;;;3.80;57.50;;;;;;927664;149;27312;-75
2023/03/03 01:07:17;;;;;;;7.93;6.83;;;3.80;57.60;;;;;;927302;149;27341;-75
2023/03/03 01:09:44;;;;;;;8.87;7.17;;;3.80;57.70;;;;;;942295;147;27420;-75
2023/03/03 01:12:10;;;;;;;9.53;8.37;;;3.80;57.80;;;;;;942709;147;27265;-76
2023/03/03 01:14:37;;;;;;;8.60;7.53;;;3.70;57.90;;;;;;940216;150;27338;-75
2023/03/03 01:17:04;;;;;;;10.23;7.60;;;3.70;57.90;;;;;;941417;149;27453;-77
2023/03/03 01:19:30;;;;;;;9.73;7.27;;;3.70;58.00;;;;;;926453;154;27749;-75
2023/03/03 01:21:57;;;;;;;8.13;7.33;;;3.70;58.40;;;;;;929317;149;27273;-75
2023/03/03 01:24:23;;;;;;;10.27;8.70;;;3.70;58.40;;;;;;927506;149;27442;-76
2023/03/03 01:26:50;;;;;;;10.20;7.47;;;3.70;58.50;;;;;;941540;149;27350;-75
2023/03/03 01:29:16;;;;;;;8.93;8.03;;;3.70;58.60;;;;;;939318;149;27353;-75
2023/03/03 01:31:43;;;;;;;10.43;8.67;;;3.70;58.70;;;;;;941313;149;27381;-75
2023/03/03 01:34:10;;;;;;;11.90;8.67;;;3.70;59.00;;;;;;939521;149;27281;-75
2023/03/03 01:36:36;;;;;;;10.93;8.73;;;3.70;59.20;;;;;;939763;149;27784;-75
2023/03/03 01:39:03;;;;;;;12.47;8.53;;;3.70;59.40;;;;;;939811;149;27407;-77
2023/03/03 01:41:32;;;;;;;11.83;8.47;;;3.70;59.50;;;;;;939056;149;27389;-75
2023/03/03 01:43:56;;;;;;;9.27;7.63;;;3.70;59.50;;;;;;926361;149;27247;-75
2023/03/03 01:46:44;;;;;;;10.23;8.07;;;3.70;59.40;;;;;;926811;150;27291;-75
2023/03/03 01:49:10;;;;;;;9.00;7.87;;;3.70;59.40;;;;;;939282;148;27293;-76
2023/03/03 01:51:40;;;;;;;9.03;7.97;;;3.70;59.40;;;;;;939377;149;27821;-77
2023/03/03 01:54:07;;;;;;;9.57;8.57;;;3.70;59.50;;;;;;934809;149;27947;-75
2023/03/03 01:56:33;;;;;;;9.53;7.77;;;3.70;59.50;;;;;;939121;151;27326;-75
2023/03/03 01:59:15;;;;;;;9.23;7.67;;;3.70;59.40;;;;;;939729;149;27736;-75
2023/03/03 02:01:41;;;;;;;12.47;7.77;;;3.70;59.50;;;;;;941165;149;27444;-76
2023/03/03 02:04:08;;;;;;;11.57;8.63;;;3.60;59.50;;;;;;940767;148;27439;-75
2023/03/03 02:06:37;;;;;;;9.10;7.60;;;3.60;59.60;;;;;;939179;148;27321;-75
2023/03/03 02:09:16;;;;;;;12.63;8.17;;;3.60;59.70;;;;;;937748;149;27925;-76
2023/03/03 02:11:42;;;;;;;9.97;7.87;;;3.50;59.80;;;;;;939715;149;27404;-75
2023/03/03 02:14:12;;;;;;;9.07;7.60;;;3.50;59.60;;;;;;927363;149;27374;-75
2023/03/03 02:16:38;;;;;;;10.27;7.93;;;3.50;59.70;;;;;;940774;149;27391;-75
2023/03/03 02:19:05;;;;;;;13.30;8.47;;;3.50;59.90;;;;;;939327;149;27492;-75
2023/03/03 02:21:31;;;;;;;8.90;7.33;;;3.40;60.40;;;;;;941135;149;27337;-77
2023/03/03 02:24:16;;;;;;;9.87;7.70;;;3.40;60.00;;;;;;941299;149;27352;-75
2023/03/03 02:26:42;;;;;;;9.57;7.30;;;3.40;60.00;;;;;;940442;148;27398;-75
2023/03/03 02:29:09;;;;;;;8.63;7.40;;;3.30;60.00;;;;;;939618;149;27306;-75
2023/03/03 02:31:37;;;;;;;11.40;7.97;;;3.30;60.10;;;;;;929379;149;27334;-76
2023/03/03 02:34:02;;;;;;;9.13;7.30;;;3.30;60.20;;;;;;941153;149;27473;-74
2023/03/03 02:36:29;;;;;;;9.00;7.40;;;3.20;60.00;;;;;;939516;149;28402;-75
2023/03/03 02:39:04;;;;;;;13.27;8.07;;;3.20;60.40;;;;;;942313;149;27317;-75
2023/03/03 02:41:52;;;;;;;8.67;7.33;;;3.20;60.50;;;;;;933246;151;27452;-75
2023/03/03 02:44:19;;;;;;;11.50;7.13;;;3.10;60.50;;;;;;934460;150;27830;-75
2023/03/03 02:46:45;;;;;;;9.07;7.23;;;3.10;60.60;;;;;;932911;152;27378;-75
2023/03/03 02:49:12;;;;;;;11.33;8.23;;;3.10;60.80;;;;;;935061;152;27444;-75
2023/03/03 02:51:39;;;;;;;12.10;8.37;;;3.00;60.90;;;;;;933290;151;27295;-74
2023/03/03 02:54:05;;;;;;;9.93;7.70;;;3.00;61.00;;;;;;934759;152;27332;-76
2023/03/03 02:56:32;;;;;;;12.47;8.93;;;3.00;61.10;;;;;;934196;151;27472;-77
2023/03/03 02:58:58;;;;;;;10.07;8.17;;;2.90;61.10;;;;;;934205;150;27391;-74
2023/03/03 03:01:25;;;;;;;10.97;8.40;;;2.90;61.30;;;;;;934322;152;27495;-74
2023/03/03 03:03:52;;;;;;;9.37;8.27;;;2.90;61.50;;;;;;934684;152;27328;-75
2023/03/03 03:06:18;;;;;;;11.93;8.70;;;2.90;61.70;;;;;;935443;152;27275;-76
2023/03/03 03:08:45;;;;;;;9.90;8.67;;;2.90;61.60;;;;;;931242;151;27363;-74
2023/03/03 03:11:11;;;;;;;11.33;8.23;;;2.90;61.70;;;;;;935155;152;27325;-74
2023/03/03 03:13:38;;;;;;;12.37;8.53;;;2.80;61.70;;;;;;935856;150;27306;-75
2023/03/03 03:16:04;;;;;;;11.30;8.27;;;2.80;61.90;;;;;;933561;152;27944;-75
2023/03/03 03:18:31;;;;;;;9.60;8.60;;;2.80;62.10;;;;;;926443;151;27476;-74
2023/03/03 03:20:58;;;;;;;11.17;7.87;;;2.80;62.40;;;;;;943287;151;27320;-75
2023/03/03 03:23:24;;;;;;;11.73;9.03;;;2.80;62.20;;;;;;925349;151;27322;-75
2023/03/03 03:25:51;;;;;;;10.23;8.53;;;2.80;62.20;;;;;;939152;151;27313;-76
2023/03/03 03:28:17;;;;;;;12.33;9.47;;;2.80;62.20;;;;;;931903;150;27327;-77
2023/03/03 03:30:44;;;;;;;12.60;8.60;;;2.80;62.30;;;;;;930919;150;27452;-76
2023/03/03 03:33:11;;;;;;;9.37;8.13;;;2.80;62.30;;;;;;932060;150;27845;-76
2023/03/03 03:35:39;;;;;;;11.70;8.63;;;2.80;62.50;;;;;;931516;150;27718;-76
2023/03/03 03:38:04;;;;;;;9.67;8.77;;;2.80;62.50;;;;;;931403;150;27330;-76
2023/03/03 03:40:30;;;;;;;12.17;9.37;;;2.80;62.50;;;;;;931482;150;27437;-77
2023/03/03 03:42:57;;;;;;;11.87;9.33;;;2.80;62.70;;;;;;932016;150;27946;-75
2023/03/03 03:45:23;;;;;;;10.57;8.53;;;2.80;62.90;;;;;;932467;150;27451;-75
2023/03/03 03:47:50;;;;;;;10.27;8.47;;;2.80;63.00;;;;;;932261;150;27405;-75
2023/03/03 03:50:17;;;;;;;14.33;9.40;;;2.80;63.00;;;;;;931794;150;27435;-77
2023/03/03 03:52:43;;;;;;;11.80;8.40;;;2.70;63.20;;;;;;929909;150;27883;-75
2023/03/03 03:55:10;;;;;;;9.80;8.63;;;2.70;62.80;;;;;;932311;150;27425;-75
2023/03/03 03:57:36;;;;;;;14.83;9.50;;;2.70;63.00;;;;;;933399;151;27332;-75
2023/03/03 04:00:03;;;;;;;11.27;9.40;;;2.70;62.90;;;;;;932968;150;27403;-75
2023/03/03 04:02:30;;;;;;;12.07;9.63;;;2.70;62.90;;;;;;932658;150;27525;-77
2023/03/03 04:04:56;;;;;;;11.30;9.47;;;2.60;63.00;;;;;;931808;150;27333;-75
2023/03/03 04:07:23;;;;;;;12.00;9.43;;;2.70;63.30;;;;;;930759;150;27418;-74
2023/03/03 04:09:49;;;;;;;12.53;9.30;;;2.60;63.50;;;;;;933732;150;27431;-76
2023/03/03 04:12:16;;;;;;;13.73;10.53;;;2.60;63.60;;;;;;933688;150;27451;-77
2023/03/03 04:14:43;;;;;;;16.20;10.83;;;2.60;63.70;;;;;;931282;150;27366;-75
2023/03/03 04:17:09;;;;;;;12.50;10.00;;;2.60;63.60;;;;;;932280;150;27366;-75
2023/03/03 04:19:36;;;;;;;13.57;10.70;;;2.60;63.90;;;;;;932346;150;27340;-75
2023/03/03 04:22:02;;;;;;;14.63;10.43;;;2.60;64.20;;;;;;940428;151;27410;-75
2023/03/03 04:24:29;;;;;;;15.63;11.03;;;2.60;64.30;;;;;;939475;151;27349;-75
2023/03/03 04:26:55;;;;;;;13.40;10.80;;;2.60;64.30;;;;;;945117;148;28343;-77
2023/03/03 04:29:22;;;;;;;13.77;10.37;;;2.60;64.10;;;;;;931056;150;27429;-75
2023/03/03 04:31:49;;;;;;;14.80;11.33;;;2.60;64.30;;;;;;945270;148;28152;-75
2023/03/03 04:34:15;;;;;;;13.33;10.33;;;2.60;64.20;;;;;;939548;148;27626;-76
2023/03/03 04:36:42;;;;;;;15.50;11.97;;;2.60;64.50;;;;;;931888;150;27358;-74
2023/03/03 04:39:08;;;;;;;15.70;10.60;;;2.60;64.60;;;;;;931517;150;27453;-75
2023/03/03 04:41:35;;;;;;;13.03;11.13;;;2.60;64.80;;;;;;934780;150;27376;-76
2023/03/03 04:44:02;;;;;;;15.70;11.60;;;2.60;64.90;;;;;;939953;148;27429;-75
2023/03/03 04:46:28;;;;;;;13.43;10.43;;;2.60;64.90;;;;;;937252;149;27377;-75
2023/03/03 04:48:55;;;;;;;14.87;11.27;;;2.50;64.70;;;;;;939208;148;27371;-74
2023/03/03 04:51:21;;;;;;;13.37;11.07;;;2.60;64.60;;;;;;936420;149;27319;-77
2023/03/03 04:53:48;;;;;;;16.47;11.37;;;2.60;64.70;;;;;;937241;148;27452;-75
2023/03/03 04:56:15;;;;;;;14.73;11.23;;;2.60;65.00;;;;;;938694;149;27860;-77
2023/03/03 04:58:41;;;;;;;14.60;11.97;;;2.50;65.00;;;;;;945479;148;27346;-75
2023/03/03 05:01:08;;;;;;;14.23;10.83;;;2.50;65.20;;;;;;940613;147;27402;-74
2023/03/03 05:03:34;;;;;;;15.43;11.67;;;2.50;65.10;;;;;;938493;149;27347;-75
2023/03/03 05:06:01;;;;;;;14.57;11.40;;;2.50;64.40;;;;;;937875;148;27325;-75
2023/03/03 05:08:27;;;;;;;13.57;10.53;;;2.50;65.40;;;;;;938880;149;27388;-75
2023/03/03 05:10:54;;;;;;;14.10;11.13;;;2.50;65.60;;;;;;939863;149;27474;-75
2023/03/03 05:13:21;;;;;;;14.20;11.53;;;2.40;65.70;;;;;;937789;148;27315;-75
2023/03/03 05:15:50;;;;;;;15.60;11.50;;;2.40;65.70;;;;;;940821;148;27349;-74
2023/03/03 05:18:17;;;;;;;17.27;12.13;;;2.40;65.50;;;;;;940270;151;27828;-76
2023/03/03 05:20:43;;;;;;;15.60;11.90;;;2.40;65.50;;;;;;940483;149;27430;-74
2023/03/03 05:23:10;;;;;;;15.00;12.00;;;2.40;65.60;;;;;;942111;151;27290;-75
2023/03/03 05:25:37;;;;;;;15.87;12.03;;;2.40;65.50;;;;;;939900;148;27285;-75
2023/03/03 05:28:03;;;;;;;18.67;12.57;;;2.40;65.70;;;;;;940139;149;27869;-75
2023/03/03 05:30:30;;;;;;;16.10;12.23;;;2.40;65.00;;;;;;940429;149;27334;-74
2023/03/03 05:32:58;;;;;;;21.40;13.50;;;2.30;65.00;;;;;;939039;149;27731;-75
2023/03/03 05:35:23;;;;;;;21.37;13.27;;;2.30;65.10;;;;;;938258;148;27322;-75
2023/03/03 05:37:51;;;;;;;19.10;13.10;;;2.30;65.30;;;;;;941129;149;27298;-75
2023/03/03 05:40:16;;;;;;;20.03;13.57;;;2.30;65.20;;;;;;926539;149;27379;-75
2023/03/03 05:42:43;;;;;;;18.63;12.93;;;2.30;65.20;;;;;;935731;151;27486;-74
2023/03/03 05:45:09;;;;;;;17.77;14.20;;;2.30;65.10;;;;;;934134;152;27388;-75
2023/03/03 05:47:36;;;;;;;18.20;12.43;;;2.30;66.00;;;;;;932111;152;27303;-74
2023/03/03 05:50:03;;;;;;;19.40;12.47;;;2.30;66.00;;;;;;925930;154;27441;-75
2023/03/03 05:52:29;;;;;;;16.57;11.77;;;2.30;66.20;;;;;;926534;154;27423;-74
2023/03/03 05:54:56;;;;;;;18.90;12.17;;;2.30;66.40;;;;;;933489;152;27348;-75
2023/03/03 05:57:22;;;;;;;18.20;12.63;;;2.20;66.40;;;;;;933052;152;27653;-75
2023/03/03 05:59:49;;;;;;;17.60;12.83;;;2.20;66.30;;;;;;932108;152;27440;-74
2023/03/03 06:02:15;;;;;;;18.23;13.10;;;2.20;66.30;;;;;;934575;152;27510;-77
2023/03/03 06:04:42;;;;;;;18.07;12.53;;;2.20;66.50;;;;;;935533;152;27366;-74
2023/03/03 06:07:09;;;;;;;19.70;12.63;;;2.20;66.50;;;;;;932479;152;27303;-74
2023/03/03 06:09:35;;;;;;;17.07;13.37;;;2.20;66.70;;;;;;935042;152;27412;-74
2023/03/03 06:12:02;;;;;;;18.47;13.33;;;2.20;67.10;;;;;;928233;154;27347;-75
2023/03/03 06:14:28;;;;;;;17.90;12.80;;;2.20;67.20;;;;;;928160;151;27341;-74
2023/03/03 06:16:56;;;;;;;16.33;12.97;;;2.20;67.10;;;;;;932320;152;27320;-74
2023/03/03 06:19:22;;;;;;;14.37;11.80;;;2.20;67.30;;;;;;927685;151;27310;-74
2023/03/03 06:21:48;;;;;;;16.97;12.87;;;2.20;66.90;;;;;;934716;152;27413;-74
2023/03/03 06:24:15;;;;;;;20.60;13.90;;;2.20;67.80;;;;;;927771;151;27370;-74
2023/03/03 06:26:41;;;;;;;19.63;13.83;;;2.20;67.60;;;;;;931578;152;27362;-74
2023/03/03 06:29:08;;;;;;;20.83;14.50;;;2.20;67.80;;;;;;932938;152;27332;-74
2023/03/03 06:31:35;;;;;;;18.90;13.90;;;2.30;67.80;;;;;;933175;152;27264;-75
2023/03/03 06:34:01;;;;;;;20.23;14.00;;;2.30;68.00;;;;;;932329;151;27319;-77
2023/03/03 06:36:28;;;;;;;21.17;14.60;;;2.40;68.90;;;;;;925019;154;27341;-74
2023/03/03 06:38:54;;;;;;;19.23;14.33;;;2.40;68.20;;;;;;934850;152;27291;-75
2023/03/03 06:41:21;;;;;;;19.23;13.73;;;2.50;68.50;;;;;;932881;152;27300;-74
2023/03/03 06:43:47;;;;;;;21.10;14.07;;;2.60;68.80;;;;;;937919;151;27374;-75
2023/03/03 06:46:14;;;;;;;19.57;13.93;;;2.80;68.80;;;;;;927192;149;27436;-74
2023/03/03 06:48:41;;;;;;;18.10;13.83;;;2.90;68.30;;;;;;941399;149;27927;-74
2023/03/03 06:51:07;;;;;;;20.83;15.33;;;3.00;67.80;;;;;;938792;149;27386;-74
2023/03/03 06:53:34;;;;;;;18.27;13.33;;;3.20;67.60;;;;;;921791;149;27435;-74
2023/03/03 06:56:00;;;;;;;22.50;15.17;;;3.30;67.60;;;;;;925209;149;27364;-76
2023/03/03 06:58:28;;;;;;;22.47;14.73;;;3.40;67.40;;;;;;940672;148;27373;-74
2023/03/03 07:00:56;;;;;;;20.37;14.37;;;3.60;67.30;;;;;;940990;149;27450;-74
2023/03/03 07:03:23;;;;;;;20.17;14.60;;;3.70;67.40;;;;;;940311;149;27387;-75
2023/03/03 07:05:51;;;;;;;21.33;15.37;;;3.90;67.50;;;;;;940127;149;27348;-76
2023/03/03 07:08:16;;;;;;;20.03;15.07;;;4.10;67.50;;;;;;940039;148;27368;-74
2023/03/03 07:10:43;;;;;;;22.97;15.90;;;4.40;68.10;;;;;;940304;151;27473;-75
2023/03/03 07:13:24;;;;;;;21.10;15.67;;;4.60;68.10;;;;;;940398;149;27433;-75
2023/03/03 07:15:54;;;;;;;19.30;14.20;;;4.80;67.70;;;;;;942798;147;27265;-74
2023/03/03 07:18:31;;;;;;;19.30;14.13;;;5.00;67.20;;;;;;940795;148;27511;-76
2023/03/03 07:20:56;;;;;;;21.93;15.10;;;5.20;66.50;;;;;;938932;149;27718;-76
2023/03/03 07:23:26;;;;;;;24.23;16.13;;;5.40;66.40;;;;;;944950;147;27319;-74
2023/03/03 07:25:52;;;;;;;20.70;15.23;;;5.50;66.20;;;;;;934357;149;27302;-74
2023/03/03 07:28:25;;;;;;;20.30;15.47;;;5.60;65.70;;;;;;941829;149;27329;-75
2023/03/03 07:30:54;;;;;;;19.30;14.80;;;5.70;65.50;;;;;;941434;149;27445;-77
2023/03/03 07:33:24;;;;;;;21.33;15.37;;;5.80;65.30;;;;;;939829;149;27444;-74
2023/03/03 07:35:50;;;;;;;20.93;15.23;;;5.80;65.00;;;;;;941304;150;27725;-75
2023/03/03 07:38:23;;;;;;;22.37;16.07;;;5.80;64.80;;;;;;940729;149;27337;-74
2023/03/03 07:40:49;;;;;;;23.23;16.67;;;5.90;64.70;;;;;;940868;150;27457;-74
2023/03/03 07:43:18;;;;;;;20.23;16.13;;;5.90;64.70;;;;;;935717;149;27518;-74
2023/03/03 07:45:45;;;;;;;22.07;16.30;;;6.00;64.60;;;;;;931867;152;27800;-75
2023/03/03 07:48:29;;;;;;;21.83;16.07;;;6.00;64.90;;;;;;932652;152;27423;-77
2023/03/03 07:50:56;;;;;;;19.83;15.17;;;6.10;65.50;;;;;;932541;152;27800;-75
2023/03/03 07:53:25;;;;;;;24.40;17.00;;;6.30;65.70;;;;;;933305;152;27783;-75
2023/03/03 07:55:52;;;;;;;22.63;15.60;;;6.50;65.60;;;;;;933294;152;27278;-75
2023/03/03 07:58:24;;;;;;;21.00;15.77;;;6.60;65.40;;;;;;930957;152;27483;-78
2023/03/03 08:01:28;;;;;;;21.97;15.73;;;6.80;65.10;;;;;;923528;154;27275;-74
2023/03/03 08:03:54;;;;;;;20.80;15.27;;;7.00;64.80;;;;;;936113;150;28795;-75
2023/03/03 08:06:31;;;;;;;22.23;15.47;;;7.10;64.50;;;;;;932076;151;27294;-75
2023/03/03 08:08:58;;;;;;;19.67;16.27;;;7.20;64.50;;;;;;932837;153;27317;-75
2023/03/03 08:11:23;;;;;;;22.13;16.47;;;7.40;64.20;;;;;;933279;150;27321;-76
2023/03/03 08:13:50;;;;;;;23.30;16.90;;;7.50;64.40;;;;;;933556;151;27387;-75
2023/03/03 08:16:16;;;;;;;22.47;16.27;;;7.80;64.90;;;;;;934026;152;27378;-76
2023/03/03 08:18:45;;;;;;;20.90;16.20;;;8.20;65.60;;;;;;932385;151;27347;-75
2023/03/03 08:21:18;;;;;;;23.47;17.73;;;8.70;66.10;;;;;;932277;151;27324;-75
2023/03/03 08:23:45;;;;;;;21.53;16.93;;;9.20;65.80;;;;;;933735;150;27353;-75
2023/03/03 08:26:15;;;;;;;23.53;17.30;;;9.80;65.10;;;;;;933940;150;27409;-75
2023/03/03 08:28:41;;;;;;;24.37;17.70;;;10.30;64.30;;;;;;932436;153;27837;-76
2023/03/03 08:31:07;;;;;;;24.67;18.40;;;10.80;63.80;;;;;;935148;150;27322;-76
2023/03/03 08:33:34;;;;;;;23.77;18.13;;;11.30;63.30;;;;;;933098;153;27461;-75
2023/03/03 08:36:00;;;;;;;22.33;16.93;;;11.70;62.80;;;;;;932814;152;27410;-76
2023/03/03 08:38:27;;;;;;;20.47;16.93;;;12.20;62.20;;;;;;933762;150;27813;-75
2023/03/03 08:40:54;;;;;;;21.97;16.90;;;12.60;61.50;;;;;;933961;152;27328;-75
2023/03/03 08:43:23;;;;;;;21.45;17.82;;;13.00;60.50;;;;;;932582;150;27370;-75
2023/03/03 08:45:50;;;;;;;23.42;17.32;;;13.40;60.00;;;;;;926810;151;28540;-75
2023/03/03 08:48:16;;;;;;;21.33;17.23;;;13.80;59.80;;;;;;926293;151;27463;-75
2023/03/03 08:50:43;;;;;;;21.33;16.27;;;14.20;59.10;;;;;;928175;151;27416;-75
2023/03/03 08:53:10;;;;;;;22.35;17.35;;;14.50;58.10;;;;;;924701;151;27448;-75
2023/03/03 08:55:36;;;;;;;20.43;16.77;;;14.80;57.20;;;;;;925159;151;27740;-75
2023/03/03 08:58:03;;;;;;;20.45;17.15;;;15.00;56.80;;;;;;928155;151;27382;-76
2023/03/03 09:00:29;;;;;;;21.55;16.40;;;15.20;56.50;;;;;;925285;151;27599;-75
2023/03/03 09:02:56;;;;;;;19.37;16.42;;;15.50;56.50;;;;;;927286;151;27313;-77
2023/03/03 09:05:23;;;;;;;22.70;16.73;;;15.70;55.80;;;;;;926094;151;27467;-75
2023/03/03 09:07:50;;;;;;;22.10;16.50;;;15.90;55.60;;;;;;928417;151;27451;-75
2023/03/03 09:10:16;;;;;;;20.05;16.20;;;16.10;55.80;;;;;;927907;151;28214;-75
2023/03/03 09:12:42;;;;;;;18.90;14.85;;;16.40;55.80;;;;;;926419;151;27427;-76
2023/03/03 09:15:15;;;;;;;19.00;15.50;;;16.70;55.50;;;;;;926975;151;27463;-78
2023/03/03 09:17:43;;;;;;;19.50;16.15;;;17.00;54.80;;;;;;925894;151;27579;-74
2023/03/03 09:20:29;;;;;;;18.85;15.95;;;17.20;54.30;;;;;;927960;151;27417;-73
2023/03/03 09:22:55;;;;;;;18.62;15.60;;;17.40;53.80;;;;;;925112;151;27375;-74
2023/03/03 09:25:34;;;;;;;19.55;14.38;;;17.60;53.40;;;;;;926029;151;27477;-77
2023/03/03 09:28:03;;;;;;;18.80;14.75;;;17.70;53.30;;;;;;927680;151;27406;-74
2023/03/03 09:30:36;;;;;;;19.12;15.30;;;17.90;53.40;;;;;;926760;151;27343;-74
2023/03/03 09:33:02;;;;;;;19.40;15.95;;;17.90;52.90;;;;;;924587;151;27359;-77
2023/03/03 09:35:39;;;;;;;20.15;15.95;;;18.10;52.70;;;;;;922424;151;27355;-76
2023/03/03 09:38:07;;;;;;;20.25;15.93;;;18.20;52.40;;;;;;927361;151;27382;-74
2023/03/03 09:40:34;;;;;;;17.25;14.87;;;18.30;52.00;;;;;;923653;149;27372;-75
2023/03/03 09:43:09;;;;;;;19.73;15.30;;;18.30;51.40;;;;;;929937;149;27278;-74
2023/03/03 09:45:47;;;;;;;16.80;13.72;;;18.30;51.10;;;;;;938377;147;27319;-77
2023/03/03 09:48:20;;;;;;;17.90;15.13;;;18.20;51.30;;;;;;944735;151;27341;-74
2023/03/03 09:50:52;;;;;;;19.37;15.38;;;18.20;51.30;;;;;;934223;152;27379;-74
2023/03/03 09:53:24;;;;;;;18.27;14.50;;;18.20;51.10;;;;;;907577;150;27369;-75
2023/03/03 09:55:53;;;;;;;17.25;14.50;;;18.10;51.10;;;;;;923955;154;27354;-74
2023/03/03 09:58:35;;;;;;;17.48;14.30;;;18.00;50.80;;;;;;933122;152;27374;-75
2023/03/03 10:01:14;;;;;;;17.05;14.40;;;17.90;50.50;;;;;;934438;152;27301;-76
2023/03/03 10:04:11;;;;;;;17.15;14.23;;;17.70;50.30;;;;;;935678;150;27439;-74
2023/03/03 10:06:37;;;;;;;19.80;14.80;;;17.50;50.50;;;;;;932191;152;27392;-74
2023/03/03 10:09:19;;;;;;;16.65;14.40;;;17.20;50.40;;;;;;931594;152;27469;-76
2023/03/03 10:11:54;;;;;;;18.00;14.58;;;17.00;50.40;;;;;;932511;152;27302;-75
2023/03/03 10:14:39;;;;;;;17.23;14.28;;;16.70;50.50;;;;;;933784;152;27373;-75
2023/03/03 10:17:08;;;;;;;19.05;14.70;;;16.50;50.50;;;;;;932230;152;27353;-75
2023/03/03 10:19:56;;;;;;;18.12;14.43;;;16.20;50.50;;;;;;932004;152;27335;-74
2023/03/03 10:22:23;;;;;;;15.65;13.83;;;16.00;50.50;;;;;;933181;152;27374;-74
2023/03/03 10:24:58;;;;;;;16.17;13.47;;;15.80;50.60;;;;;;927589;152;27377;-75
2023/03/03 10:27:28;;;;;;;17.73;14.75;;;15.50;50.70;;;;;;932452;151;27357;-73
2023/03/03 10:30:00;;;;;;;15.70;12.98;;;15.40;50.80;;;;;;932282;152;27314;-74
2023/03/03 10:32:32;;;;;;;20.80;14.68;;;15.10;50.80;;;;;;932376;152;27408;-75
2023/03/03 10:35:07;;;;;;;16.70;13.80;;;14.90;50.80;;;;;;929801;152;27887;-74
2023/03/03 10:37:43;;;;;;;17.13;13.63;;;14.60;50.70;;;;;;931895;152;27317;-74
2023/03/03 10:40:47;;;;;;;17.10;14.23;;;14.30;50.70;;;;;;929066;150;27315;-75
2023/03/03 10:43:25;;;;;;;18.77;14.87;;;14.00;50.90;;;;;;934083;151;27489;-76
2023/03/03 10:45:51;;;;;;;19.07;13.57;;;13.70;51.10;;;;;;935997;151;27353;-78
2023/03/03 10:48:40;;;;;;;15.77;12.80;;;13.40;51.10;;;;;;940603;151;27424;-74
2023/03/03 10:51:09;;;;;;;17.97;13.60;;;13.10;51.60;;;;;;940484;149;27368;-73
2023/03/03 10:53:44;;;;;;;16.47;13.40;;;12.80;52.00;;;;;;922716;149;27326;-74
2023/03/03 10:56:11;;;;;;;17.37;13.10;;;12.60;52.10;;;;;;938834;149;27646;-74
2023/03/03 10:58:37;;;;;;;15.63;13.00;;;12.40;52.40;;;;;;939342;149;27476;-76
2023/03/03 11:01:13;;;;;;;16.70;12.93;;;12.20;53.30;;;;;;927262;149;27443;-73
2023/03/03 11:03:42;;;;;;;14.87;12.73;;;12.10;53.00;;;;;;938283;149;27415;-74
2023/03/03 11:06:11;;;;;;;16.13;12.97;;;12.00;53.30;;;;;;941099;149;27327;-75
2023/03/03 11:08:47;;;;;;;16.83;13.03;;;11.90;53.40;;;;;;939873;149;27799;-73
2023/03/03 11:11:28;;;;;;;16.07;12.17;;;11.90;53.70;;;;;;940030;149;27881;-73
2023/03/03 11:14:10;;;;;;;16.23;13.67;;;11.80;53.70;;;;;;937902;148;27339;-74
2023/03/03 11:16:55;;;;;;;16.30;12.93;;;11.70;53.80;;;;;;940898;149;27266;-76
2023/03/03 11:19:23;;;;;;;15.07;12.53;;;11.70;53.80;;;;;;940468;149;27808;-73
2023/03/03 11:21:51;;;;;;;15.97;12.47;;;11.50;53.90;;;;;;940357;149;27375;-73
2023/03/03 11:24:26;;;;;;;16.00;12.53;;;11.50;54.10;;;;;;938620;149;27423;-74
2023/03/03 11:27:30;;;;;;;15.80;12.37;;;11.40;54.20;;;;;;940966;149;27327;-74
2023/03/03 11:30:03;;;;;;;15.53;12.50;;;11.40;54.30;;;;;;940875;149;27359;-73
2023/03/03 11:32:48;;;;;;;15.83;12.60;;;11.30;54.30;;;;;;940063;147;27254;-74
2023/03/03 11:35:26;;;;;;;15.40;11.50;;;11.20;54.50;;;;;;940364;149;27360;-76
2023/03/03 11:37:58;;;;;;;14.37;11.30;;;11.20;54.70;;;;;;938702;149;27798;-73
2023/03/03 11:40:28;;;;;;;15.87;12.43;;;11.20;54.70;;;;;;939013;149;27351;-73
2023/03/03 11:43:13;;;;;;;15.30;12.33;;;11.20;54.90;;;;;;937695;148;27322;-74
2023/03/03 11:45:40;;;;;;;14.20;11.73;;;11.20;55.00;;;;;;938400;149;27742;-74
2023/03/03 11:48:12;;;;;;;16.03;12.63;;;11.20;55.10;;;;;;927823;151;27348;-74
2023/03/03 11:50:38;;;;;;;16.67;12.43;;;11.20;55.10;;;;;;935228;152;27412;-74
2023/03/03 11:53:23;;;;;;;14.33;11.50;;;11.20;55.20;;;;;;931213;150;27319;-74
2023/03/03 11:55:49;;;;;;;14.50;11.37;;;11.20;54.60;;;;;;931717;152;27318;-76
2023/03/03 11:58:19;;;;;;;14.17;11.70;;;11.30;55.20;;;;;;930509;152;27378;-74
2023/03/03 12:00:59;;;;;;;16.20;12.50;;;11.30;55.90;;;;;;931435;151;27438;-74
2023/03/03 12:03:29;;;;;;;14.20;11.87;;;11.30;55.40;;;;;;933608;152;27371;-75
2023/03/03 12:05:56;;;;;;;17.37;12.13;;;11.30;55.30;;;;;;933003;151;27364;-77
2023/03/03 12:08:37;;;;;;;16.07;11.57;;;11.30;55.30;;;;;;933921;151;27721;-74
2023/03/03 12:11:13;;;;;;;14.07;12.03;;;11.30;55.40;;;;;;931236;153;27441;-73
2023/03/03 12:13:54;;;;;;;12.07;9.83;;;11.40;55.50;;;;;;934093;153;27299;-76
2023/03/03 12:16:33;;;;;;;16.57;12.10;;;11.30;55.40;;;;;;934719;150;27520;-74
2023/03/03 12:19:18;;;;;;;14.50;11.33;;;11.40;55.40;;;;;;932030;151;27904;-76
2023/03/03 12:21:50;;;;;;;14.30;10.93;;;11.40;55.40;;;;;;933295;153;27355;-73
2023/03/03 12:24:22;;;;;;;16.33;11.20;;;11.40;55.30;;;;;;933168;150;27389;-77
2023/03/03 12:27:00;;;;;;;12.03;10.57;;;11.40;55.30;;;;;;933078;151;27475;-75
2023/03/03 12:29:28;;;;;;;13.37;11.07;;;11.40;55.40;;;;;;891825;151;27332;-73
2023/03/03 12:32:20;;;;;;;12.50;10.57;;;11.40;55.50;;;;;;930202;151;27457;-74
2023/03/03 12:34:48;;;;;;;13.17;10.63;;;11.40;55.50;;;;;;930394;150;27379;-74
2023/03/03 12:37:36;;;;;;;14.20;11.07;;;11.40;55.50;;;;;;931897;153;27364;-73
2023/03/03 12:40:03;;;;;;;12.70;11.27;;;11.40;55.50;;;;;;932641;151;27854;-73
2023/03/03 12:42:53;;;;;;;15.03;10.93;;;11.50;56.20;;;;;;931603;154;27285;-75
2023/03/03 12:45:41;;;;;;;15.33;12.47;;;11.50;55.50;;;;;;933759;152;27409;-75
2023/03/03 12:48:08;;;;;;;13.60;10.97;;;11.50;55.40;;;;;;931216;150;27454;-74
2023/03/03 12:50:57;;;;;;;14.40;11.00;;;11.50;55.40;;;;;;933468;152;27382;-74
2023/03/03 12:53:47;;;;;;;15.47;11.10;;;11.50;55.40;;;;;;931555;151;27375;-74